sensor_id;sensor_type;location;lat;lon;timestamp;temperature;humidity
19555;DHT22;9924;50.828;6.440;2023-06-10T00:01:44;17.00;99.90
19555;DHT22;9924;50.828;6.440;2023-06-10T00:04:31;16.90;99.90
19555;DHT22;9924;50.828;6.440;2023-06-10T00:07:16;16.90;99.90
19555;DHT22;9924;50.828;6.440;2023-06-10T00:10:00;16.80;99.90
19555;DHT22;9924;50.828;6.440;2023-06-10T00:12:48;16.80;99.90
19555;DHT22;9924;50.828;6.440;2023-06-10T00:15:33;16.80;99.90
19555;DHT22;9924;50.828;6.440;2023-06-10T00:18:17;16.80;99.90
19555;DHT22;9924;50.828;6.440;2023-06-10T00:21:01;16.70;99.90
19555;DHT22;9924;50.828;6.440;2023-06-10T00:23:49;16.60;99.90
19555;DHT22;9924;50.828;6.440;2023-06-10T00:26:33;16.60;99.90
19555;DHT22;9924;50.828;6.440;2023-06-10T00:29:19;16.50;99.90
19555;DHT22;9924;50.828;6.440;2023-06-10T00:32:04;16.50;99.90
19555;DHT22;9924;50.828;6.440;2023-06-10T00:34:48;16.50;99.90
19555;DHT22;9924;50.828;6.440;2023-06-10T00:37:33;16.40;99.90
19555;DHT22;9924;50.828;6.440;2023-06-10T00:40:18;16.40;99.90
19555;DHT22;9924;50.828;6.440;2023-06-10T00:43:03;16.30;99.90
19555;DHT22;9924;50.828;6.440;2023-06-10T00:45:48;16.30;99.90
19555;DHT22;9924;50.828;6.440;2023-06-10T00:48:32;16.20;99.90
19555;DHT22;9924;50.828;6.440;2023-06-10T00:51:18;16.20;99.90
19555;DHT22;9924;50.828;6.440;2023-06-10T00:54:03;16.10;99.90
19555;DHT22;9924;50.828;6.440;2023-06-10T00:56:48;16.00;99.90
19555;DHT22;9924;50.828;6.440;2023-06-10T00:59:32;15.90;99.90
19555;DHT22;9924;50.828;6.440;2023-06-10T01:02:17;15.80;99.90
19555;DHT22;9924;50.828;6.440;2023-06-10T01:05:02;15.80;99.90
19555;DHT22;9924;50.828;6.440;2023-06-10T01:10:57;15.70;99.90
19555;DHT22;9924;50.828;6.440;2023-06-10T01:13:43;15.70;99.90
19555;DHT22;9924;50.828;6.440;2023-06-10T01:16:28;15.70;99.90
19555;DHT22;9924;50.828;6.440;2023-06-10T01:19:13;15.60;99.90
19555;DHT22;9924;50.828;6.440;2023-06-10T01:21:59;15.60;99.90
19555;DHT22;9924;50.828;6.440;2023-06-10T01:24:45;15.60;99.90
19555;DHT22;9924;50.828;6.440;2023-06-10T01:27:33;15.60;99.90
19555;DHT22;9924;50.828;6.440;2023-06-10T01:30:20;15.60;99.90
19555;DHT22;9924;50.828;6.440;2023-06-10T01:33:11;15.60;99.90
19555;DHT22;9924;50.828;6.440;2023-06-10T01:35:58;15.60;99.90
19555;DHT22;9924;50.828;6.440;2023-06-10T01:38:45;15.60;99.90
19555;DHT22;9924;50.828;6.440;2023-06-10T01:41:31;15.50;99.90
19555;DHT22;9924;50.828;6.440;2023-06-10T01:44:21;15.50;99.90
19555;DHT22;9924;50.828;6.440;2023-06-10T01:47:05;15.50;99.90
19555;DHT22;9924;50.828;6.440;2023-06-10T01:49:49;15.50;99.90
19555;DHT22;9924;50.828;6.440;2023-06-10T01:52:33;15.40;99.90
19555;DHT22;9924;50.828;6.440;2023-06-10T01:55:18;15.40;99.90
19555;DHT22;9924;50.828;6.440;2023-06-10T01:58:02;15.40;99.90
19555;DHT22;9924;50.828;6.440;2023-06-10T02:00:47;15.30;99.90
19555;DHT22;9924;50.828;6.440;2023-06-10T02:03:31;15.30;99.90
19555;DHT22;9924;50.828;6.440;2023-06-10T02:06:15;15.30;99.90
19555;DHT22;9924;50.828;6.440;2023-06-10T02:09:00;15.20;99.90
19555;DHT22;9924;50.828;6.440;2023-06-10T02:11:45;15.10;99.90
19555;DHT22;9924;50.828;6.440;2023-06-10T02:14:29;15.00;99.90
19555;DHT22;9924;50.828;6.440;2023-06-10T02:17:13;15.00;99.90
19555;DHT22;9924;50.828;6.440;2023-06-10T02:19:59;15.00;99.90
19555;DHT22;9924;50.828;6.440;2023-06-10T02:22:43;15.00;99.90
19555;DHT22;9924;50.828;6.440;2023-06-10T02:25:28;15.00;99.90
19555;DHT22;9924;50.828;6.440;2023-06-10T02:28:12;15.00;99.90
19555;DHT22;9924;50.828;6.440;2023-06-10T02:30:56;14.90;99.90
19555;DHT22;9924;50.828;6.440;2023-06-10T02:33:41;14.80;99.90
19555;DHT22;9924;50.828;6.440;2023-06-10T02:36:26;14.70;99.90
19555;DHT22;9924;50.828;6.440;2023-06-10T02:39:11;14.70;99.90
19555;DHT22;9924;50.828;6.440;2023-06-10T02:41:56;14.70;99.90
19555;DHT22;9924;50.828;6.440;2023-06-10T02:44:40;14.70;99.90
19555;DHT22;9924;50.828;6.440;2023-06-10T02:47:25;14.70;99.90
19555;DHT22;9924;50.828;6.440;2023-06-10T02:50:09;14.70;99.90
19555;DHT22;9924;50.828;6.440;2023-06-10T02:52:53;14.70;99.90
19555;DHT22;9924;50.828;6.440;2023-06-10T02:55:38;14.70;99.90
19555;DHT22;9924;50.828;6.440;2023-06-10T02:58:23;14.60;99.90
19555;DHT22;9924;50.828;6.440;2023-06-10T03:01:08;14.50;99.90
19555;DHT22;9924;50.828;6.440;2023-06-10T03:03:54;14.50;99.90
19555;DHT22;9924;50.828;6.440;2023-06-10T03:06:40;14.50;99.90
19555;DHT22;9924;50.828;6.440;2023-06-10T03:09:25;14.60;99.90
19555;DHT22;9924;50.828;6.440;2023-06-10T03:12:09;14.50;99.90
19555;DHT22;9924;50.828;6.440;2023-06-10T03:14:54;14.50;99.90
19555;DHT22;9924;50.828;6.440;2023-06-10T03:17:38;14.50;99.90
19555;DHT22;9924;50.828;6.440;2023-06-10T03:20:23;14.50;99.90
19555;DHT22;9924;50.828;6.440;2023-06-10T03:23:09;14.50;99.90
19555;DHT22;9924;50.828;6.440;2023-06-10T03:25:53;14.40;99.90
19555;DHT22;9924;50.828;6.440;2023-06-10T03:28:38;14.40;99.90
19555;DHT22;9924;50.828;6.440;2023-06-10T03:31:23;14.30;99.90
19555;DHT22;9924;50.828;6.440;2023-06-10T03:34:08;14.30;99.90
19555;DHT22;9924;50.828;6.440;2023-06-10T03:36:53;14.30;99.90
19555;DHT22;9924;50.828;6.440;2023-06-10T03:39:37;14.40;99.90
19555;DHT22;9924;50.828;6.440;2023-06-10T03:42:22;14.40;99.90
19555;DHT22;9924;50.828;6.440;2023-06-10T03:45:06;14.40;99.90
19555;DHT22;9924;50.828;6.440;2023-06-10T03:47:51;14.40;99.90
19555;DHT22;9924;50.828;6.440;2023-06-10T03:50:35;14.40;99.90
19555;DHT22;9924;50.828;6.440;2023-06-10T03:53:20;14.40;99.90
19555;DHT22;9924;50.828;6.440;2023-06-10T03:56:05;14.40;99.90
19555;DHT22;9924;50.828;6.440;2023-06-10T03:58:49;14.40;99.90
19555;DHT22;9924;50.828;6.440;2023-06-10T04:01:33;14.50;99.90
19555;DHT22;9924;50.828;6.440;2023-06-10T04:04:19;14.50;99.90
19555;DHT22;9924;50.828;6.440;2023-06-10T04:07:04;14.50;99.90
19555;DHT22;9924;50.828;6.440;2023-06-10T04:09:49;14.50;99.90
19555;DHT22;9924;50.828;6.440;2023-06-10T04:12:35;14.50;99.90
19555;DHT22;9924;50.828;6.440;2023-06-10T04:15:20;14.50;99.90
19555;DHT22;9924;50.828;6.440;2023-06-10T04:18:06;14.60;99.90
19555;DHT22;9924;50.828;6.440;2023-06-10T04:20:50;14.60;99.90
19555;DHT22;9924;50.828;6.440;2023-06-10T04:23:35;14.70;99.90
19555;DHT22;9924;50.828;6.440;2023-06-10T04:26:21;14.70;99.90
19555;DHT22;9924;50.828;6.440;2023-06-10T04:29:06;14.80;99.90
19555;DHT22;9924;50.828;6.440;2023-06-10T04:31:50;14.90;99.90
19555;DHT22;9924;50.828;6.440;2023-06-10T04:34:35;15.00;99.90
19555;DHT22;9924;50.828;6.440;2023-06-10T04:37:20;15.00;99.90
19555;DHT22;9924;50.828;6.440;2023-06-10T04:40:05;15.20;99.90
19555;DHT22;9924;50.828;6.440;2023-06-10T04:42:50;15.20;99.90
19555;DHT22;9924;50.828;6.440;2023-06-10T04:45:34;15.20;99.90
19555;DHT22;9924;50.828;6.440;2023-06-10T04:48:19;15.30;99.90
19555;DHT22;9924;50.828;6.440;2023-06-10T04:51:03;15.40;99.90
19555;DHT22;9924;50.828;6.440;2023-06-10T04:53:47;15.60;99.90
19555;DHT22;9924;50.828;6.440;2023-06-10T04:56:32;15.80;99.90
19555;DHT22;9924;50.828;6.440;2023-06-10T04:59:16;15.90;99.90
19555;DHT22;9924;50.828;6.440;2023-06-10T05:02:00;16.20;99.90
19555;DHT22;9924;50.828;6.440;2023-06-10T05:04:45;16.40;99.90
19555;DHT22;9924;50.828;6.440;2023-06-10T05:07:29;16.60;99.90
19555;DHT22;9924;50.828;6.440;2023-06-10T05:10:13;16.90;99.90
19555;DHT22;9924;50.828;6.440;2023-06-10T05:12:58;17.10;99.90
19555;DHT22;9924;50.828;6.440;2023-06-10T05:15:42;17.40;99.90
19555;DHT22;9924;50.828;6.440;2023-06-10T05:18:28;17.50;99.90
19555;DHT22;9924;50.828;6.440;2023-06-10T05:21:13;17.70;99.90
19555;DHT22;9924;50.828;6.440;2023-06-10T05:23:57;17.90;99.90
19555;DHT22;9924;50.828;6.440;2023-06-10T05:26:41;18.10;99.90
19555;DHT22;9924;50.828;6.440;2023-06-10T05:29:27;18.30;99.90
19555;DHT22;9924;50.828;6.440;2023-06-10T05:32:11;18.50;99.90
19555;DHT22;9924;50.828;6.440;2023-06-10T05:34:56;18.70;99.90
19555;DHT22;9924;50.828;6.440;2023-06-10T05:37:40;18.90;99.90
19555;DHT22;9924;50.828;6.440;2023-06-10T05:40:24;19.10;99.90
19555;DHT22;9924;50.828;6.440;2023-06-10T05:43:09;19.40;99.90
19555;DHT22;9924;50.828;6.440;2023-06-10T05:45:54;19.60;99.90
19555;DHT22;9924;50.828;6.440;2023-06-10T05:48:39;19.80;99.90
19555;DHT22;9924;50.828;6.440;2023-06-10T05:51:26;20.00;99.90
19555;DHT22;9924;50.828;6.440;2023-06-10T05:54:12;20.10;99.90
19555;DHT22;9924;50.828;6.440;2023-06-10T05:56:56;20.30;99.90
19555;DHT22;9924;50.828;6.440;2023-06-10T05:59:41;20.60;99.90
19555;DHT22;9924;50.828;6.440;2023-06-10T06:02:25;20.80;99.90
19555;DHT22;9924;50.828;6.440;2023-06-10T06:05:09;21.00;99.90
19555;DHT22;9924;50.828;6.440;2023-06-10T06:07:54;21.20;99.90
19555;DHT22;9924;50.828;6.440;2023-06-10T06:10:38;21.40;99.90
19555;DHT22;9924;50.828;6.440;2023-06-10T06:13:22;21.50;99.90
19555;DHT22;9924;50.828;6.440;2023-06-10T06:16:07;21.70;99.90
19555;DHT22;9924;50.828;6.440;2023-06-10T06:18:51;22.00;99.90
19555;DHT22;9924;50.828;6.440;2023-06-10T06:21:36;22.20;99.90
19555;DHT22;9924;50.828;6.440;2023-06-10T06:24:20;22.30;99.90
19555;DHT22;9924;50.828;6.440;2023-06-10T06:27:05;22.50;99.90
19555;DHT22;9924;50.828;6.440;2023-06-10T06:29:49;22.70;99.90
19555;DHT22;9924;50.828;6.440;2023-06-10T06:32:35;22.90;99.90
19555;DHT22;9924;50.828;6.440;2023-06-10T06:35:19;23.10;99.90
19555;DHT22;9924;50.828;6.440;2023-06-10T06:38:04;23.30;99.90
19555;DHT22;9924;50.828;6.440;2023-06-10T06:40:48;23.40;99.90
19555;DHT22;9924;50.828;6.440;2023-06-10T06:43:34;23.50;99.90
19555;DHT22;9924;50.828;6.440;2023-06-10T06:46:18;23.80;99.90
19555;DHT22;9924;50.828;6.440;2023-06-10T06:49:02;23.90;99.90
19555;DHT22;9924;50.828;6.440;2023-06-10T06:51:47;24.00;99.90
19555;DHT22;9924;50.828;6.440;2023-06-10T06:54:33;24.20;99.90
19555;DHT22;9924;50.828;6.440;2023-06-10T06:57:18;24.20;99.90
19555;DHT22;9924;50.828;6.440;2023-06-10T07:00:03;24.30;99.90
19555;DHT22;9924;50.828;6.440;2023-06-10T07:02:48;24.30;99.90
19555;DHT22;9924;50.828;6.440;2023-06-10T07:05:33;24.40;99.90
19555;DHT22;9924;50.828;6.440;2023-06-10T07:08:18;24.60;99.90
19555;DHT22;9924;50.828;6.440;2023-06-10T07:11:02;24.70;99.90
19555;DHT22;9924;50.828;6.440;2023-06-10T07:13:46;24.90;99.90
19555;DHT22;9924;50.828;6.440;2023-06-10T07:16:31;25.20;99.90
19555;DHT22;9924;50.828;6.440;2023-06-10T07:19:15;25.30;99.90
19555;DHT22;9924;50.828;6.440;2023-06-10T07:22:00;25.50;99.90
19555;DHT22;9924;50.828;6.440;2023-06-10T07:24:45;25.70;99.90
19555;DHT22;9924;50.828;6.440;2023-06-10T07:27:29;25.80;99.90
19555;DHT22;9924;50.828;6.440;2023-06-10T07:30:13;25.90;99.90
19555;DHT22;9924;50.828;6.440;2023-06-10T07:32:57;25.90;99.90
19555;DHT22;9924;50.828;6.440;2023-06-10T07:35:42;26.00;99.90
19555;DHT22;9924;50.828;6.440;2023-06-10T07:38:27;26.20;99.90
19555;DHT22;9924;50.828;6.440;2023-06-10T07:41:12;26.20;99.90
19555;DHT22;9924;50.828;6.440;2023-06-10T07:43:56;26.20;99.90
19555;DHT22;9924;50.828;6.440;2023-06-10T07:46:41;26.40;99.90
19555;DHT22;9924;50.828;6.440;2023-06-10T07:49:26;26.40;99.90
19555;DHT22;9924;50.828;6.440;2023-06-10T07:52:11;26.70;99.90
19555;DHT22;9924;50.828;6.440;2023-06-10T07:54:56;26.80;99.90
19555;DHT22;9924;50.828;6.440;2023-06-10T07:57:40;27.00;99.90
19555;DHT22;9924;50.828;6.440;2023-06-10T08:00:25;27.00;99.90
19555;DHT22;9924;50.828;6.440;2023-06-10T08:03:10;27.10;99.90
19555;DHT22;9924;50.828;6.440;2023-06-10T08:05:58;27.00;99.90
19555;DHT22;9924;50.828;6.440;2023-06-10T08:08:43;27.20;99.90
19555;DHT22;9924;50.828;6.440;2023-06-10T08:11:28;27.30;99.90
19555;DHT22;9924;50.828;6.440;2023-06-10T08:14:13;27.30;99.90
19555;DHT22;9924;50.828;6.440;2023-06-10T08:16:57;27.50;99.90
19555;DHT22;9924;50.828;6.440;2023-06-10T08:19:41;27.90;99.90
19555;DHT22;9924;50.828;6.440;2023-06-10T08:22:26;28.10;99.90
19555;DHT22;9924;50.828;6.440;2023-06-10T08:25:11;28.20;99.90
19555;DHT22;9924;50.828;6.440;2023-06-10T08:27:55;28.20;99.90
19555;DHT22;9924;50.828;6.440;2023-06-10T08:30:41;28.00;99.90
19555;DHT22;9924;50.828;6.440;2023-06-10T08:33:26;28.10;99.90
19555;DHT22;9924;50.828;6.440;2023-06-10T08:36:10;28.20;99.90
19555;DHT22;9924;50.828;6.440;2023-06-10T08:38:54;28.30;99.90
19555;DHT22;9924;50.828;6.440;2023-06-10T08:41:43;28.30;99.90
19555;DHT22;9924;50.828;6.440;2023-06-10T08:44:29;28.50;99.90
19555;DHT22;9924;50.828;6.440;2023-06-10T08:47:15;28.80;99.90
19555;DHT22;9924;50.828;6.440;2023-06-10T08:50:03;28.80;99.90
19555;DHT22;9924;50.828;6.440;2023-06-10T08:52:50;28.80;99.90
19555;DHT22;9924;50.828;6.440;2023-06-10T08:55:38;28.60;99.90
19555;DHT22;9924;50.828;6.440;2023-06-10T08:58:27;29.00;99.90
19555;DHT22;9924;50.828;6.440;2023-06-10T09:01:12;29.00;99.80
19555;DHT22;9924;50.828;6.440;2023-06-10T09:03:58;29.00;99.90
19555;DHT22;9924;50.828;6.440;2023-06-10T09:06:44;29.30;98.70
19555;DHT22;9924;50.828;6.440;2023-06-10T09:09:29;29.30;98.90
19555;DHT22;9924;50.828;6.440;2023-06-10T09:12:16;29.30;99.50
19555;DHT22;9924;50.828;6.440;2023-06-10T09:15:01;29.50;98.40
19555;DHT22;9924;50.828;6.440;2023-06-10T09:17:46;29.40;97.80
19555;DHT22;9924;50.828;6.440;2023-06-10T09:20:30;29.50;98.10
19555;DHT22;9924;50.828;6.440;2023-06-10T09:23:15;29.60;98.50
19555;DHT22;9924;50.828;6.440;2023-06-10T09:26:00;29.80;98.60
19555;DHT22;9924;50.828;6.440;2023-06-10T09:28:48;29.70;97.00
19555;DHT22;9924;50.828;6.440;2023-06-10T09:31:35;29.70;98.10
19555;DHT22;9924;50.828;6.440;2023-06-10T09:34:24;29.80;98.60
19555;DHT22;9924;50.828;6.440;2023-06-10T09:37:09;30.00;98.10
19555;DHT22;9924;50.828;6.440;2023-06-10T09:40:07;29.90;97.10
19555;DHT22;9924;50.828;6.440;2023-06-10T09:43:00;29.70;96.80
19555;DHT22;9924;50.828;6.440;2023-06-10T09:45:56;29.60;97.70
19555;DHT22;9924;50.828;6.440;2023-06-10T09:48:43;29.80;96.60
19555;DHT22;9924;50.828;6.440;2023-06-10T09:51:30;30.00;96.20
19555;DHT22;9924;50.828;6.440;2023-06-10T09:54:14;30.20;96.70
19555;DHT22;9924;50.828;6.440;2023-06-10T09:56:59;30.30;96.30
19555;DHT22;9924;50.828;6.440;2023-06-10T09:59:45;30.50;95.50
19555;DHT22;9924;50.828;6.440;2023-06-10T10:02:29;30.60;96.10
19555;DHT22;9924;50.828;6.440;2023-06-10T10:05:15;30.70;96.80
19555;DHT22;9924;50.828;6.440;2023-06-10T10:08:00;30.70;95.30
19555;DHT22;9924;50.828;6.440;2023-06-10T10:10:44;30.70;94.80
19555;DHT22;9924;50.828;6.440;2023-06-10T10:13:29;30.50;95.00
19555;DHT22;9924;50.828;6.440;2023-06-10T10:16:17;30.70;94.60
19555;DHT22;9924;50.828;6.440;2023-06-10T10:19:08;31.00;94.70
19555;DHT22;9924;50.828;6.440;2023-06-10T10:21:56;31.10;94.70
19555;DHT22;9924;50.828;6.440;2023-06-10T10:24:53;31.20;94.00
19555;DHT22;9924;50.828;6.440;2023-06-10T10:27:49;31.60;93.50
19555;DHT22;9924;50.828;6.440;2023-06-10T10:30:41;31.80;94.30
19555;DHT22;9924;50.828;6.440;2023-06-10T10:33:40;31.80;93.20
19555;DHT22;9924;50.828;6.440;2023-06-10T10:36:25;31.70;94.00
19555;DHT22;9924;50.828;6.440;2023-06-10T10:39:10;32.10;93.50
19555;DHT22;9924;50.828;6.440;2023-06-10T10:41:55;32.10;92.60
19555;DHT22;9924;50.828;6.440;2023-06-10T10:44:40;32.20;92.80
19555;DHT22;9924;50.828;6.440;2023-06-10T10:47:27;32.20;92.20
19555;DHT22;9924;50.828;6.440;2023-06-10T10:50:15;32.10;92.10
19555;DHT22;9924;50.828;6.440;2023-06-10T10:53:04;32.00;90.90
19555;DHT22;9924;50.828;6.440;2023-06-10T10:55:59;31.80;92.10
19555;DHT22;9924;50.828;6.440;2023-06-10T10:59:04;31.70;91.40
19555;DHT22;9924;50.828;6.440;2023-06-10T11:01:49;32.00;91.40
19555;DHT22;9924;50.828;6.440;2023-06-10T11:04:33;31.90;90.70
19555;DHT22;9924;50.828;6.440;2023-06-10T11:07:20;32.10;90.80
19555;DHT22;9924;50.828;6.440;2023-06-10T11:10:10;32.50;89.00
19555;DHT22;9924;50.828;6.440;2023-06-10T11:20:57;33.00;83.10
19555;DHT22;9924;50.828;6.440;2023-06-10T11:44:12;33.50;77.60
19555;DHT22;9924;50.828;6.440;2023-06-10T11:46:56;33.60;77.00
19555;DHT22;9924;50.828;6.440;2023-06-10T11:49:41;33.60;78.30
19555;DHT22;9924;50.828;6.440;2023-06-10T11:52:31;33.70;75.60
19555;DHT22;9924;50.828;6.440;2023-06-10T11:55:17;33.70;77.00
19555;DHT22;9924;50.828;6.440;2023-06-10T11:58:02;33.80;74.80
19555;DHT22;9924;50.828;6.440;2023-06-10T12:00:51;34.00;71.70
19555;DHT22;9924;50.828;6.440;2023-06-10T12:03:36;34.00;71.40
19555;DHT22;9924;50.828;6.440;2023-06-10T12:06:22;34.40;72.00
19555;DHT22;9924;50.828;6.440;2023-06-10T12:09:17;34.90;74.60
19555;DHT22;9924;50.828;6.440;2023-06-10T12:12:05;35.20;69.70
19555;DHT22;9924;50.828;6.440;2023-06-10T12:17:43;35.00;67.20
19555;DHT22;9924;50.828;6.440;2023-06-10T12:20:29;34.90;68.30
19555;DHT22;9924;50.828;6.440;2023-06-10T12:23:15;34.90;66.10
19555;DHT22;9924;50.828;6.440;2023-06-10T12:26:00;34.30;70.10
19555;DHT22;9924;50.828;6.440;2023-06-10T12:28:50;34.30;69.30
19555;DHT22;9924;50.828;6.440;2023-06-10T12:31:55;34.80;67.90
19555;DHT22;9924;50.828;6.440;2023-06-10T12:34:40;35.30;67.60
19555;DHT22;9924;50.828;6.440;2023-06-10T12:37:25;35.50;68.60
19555;DHT22;9924;50.828;6.440;2023-06-10T12:40:09;36.20;68.00
19555;DHT22;9924;50.828;6.440;2023-06-10T12:42:55;36.30;64.10
19555;DHT22;9924;50.828;6.440;2023-06-10T12:45:41;36.30;65.40
19555;DHT22;9924;50.828;6.440;2023-06-10T12:48:28;36.10;63.60
19555;DHT22;9924;50.828;6.440;2023-06-10T12:51:13;36.00;63.40
19555;DHT22;9924;50.828;6.440;2023-06-10T12:53:57;36.50;65.50
19555;DHT22;9924;50.828;6.440;2023-06-10T12:56:42;36.90;62.80
19555;DHT22;9924;50.828;6.440;2023-06-10T12:59:27;36.80;63.10
19555;DHT22;9924;50.828;6.440;2023-06-10T13:02:11;35.30;62.50
19555;DHT22;9924;50.828;6.440;2023-06-10T13:04:57;34.40;64.70
19555;DHT22;9924;50.828;6.440;2023-06-10T13:07:41;33.50;66.70
19555;DHT22;9924;50.828;6.440;2023-06-10T13:10:25;32.80;65.70
19555;DHT22;9924;50.828;6.440;2023-06-10T13:13:10;32.20;67.60
19555;DHT22;9924;50.828;6.440;2023-06-10T13:15:54;31.80;67.90
19555;DHT22;9924;50.828;6.440;2023-06-10T13:18:38;31.70;70.40
19555;DHT22;9924;50.828;6.440;2023-06-10T13:21:23;31.60;67.70
19555;DHT22;9924;50.828;6.440;2023-06-10T13:24:07;31.70;70.40
19555;DHT22;9924;50.828;6.440;2023-06-10T13:26:52;32.30;69.00
19555;DHT22;9924;50.828;6.440;2023-06-10T13:29:36;33.40;67.50
19555;DHT22;9924;50.828;6.440;2023-06-10T13:32:20;32.70;65.10
19555;DHT22;9924;50.828;6.440;2023-06-10T13:35:05;32.10;63.90
19555;DHT22;9924;50.828;6.440;2023-06-10T13:37:49;32.80;68.20
19555;DHT22;9924;50.828;6.440;2023-06-10T13:40:35;33.80;62.40
19555;DHT22;9924;50.828;6.440;2023-06-10T13:43:19;34.10;62.50
19555;DHT22;9924;50.828;6.440;2023-06-10T13:46:04;34.50;61.50
19555;DHT22;9924;50.828;6.440;2023-06-10T13:48:48;34.70;60.80
19555;DHT22;9924;50.828;6.440;2023-06-10T13:51:32;35.30;61.40
19555;DHT22;9924;50.828;6.440;2023-06-10T13:54:16;35.90;60.80
19555;DHT22;9924;50.828;6.440;2023-06-10T13:57:01;36.40;60.70
19555;DHT22;9924;50.828;6.440;2023-06-10T13:59:46;37.20;59.80
19555;DHT22;9924;50.828;6.440;2023-06-10T14:02:31;37.60;57.40
19555;DHT22;9924;50.828;6.440;2023-06-10T14:05:15;37.60;57.20
19555;DHT22;9924;50.828;6.440;2023-06-10T14:08:00;37.80;57.30
19555;DHT22;9924;50.828;6.440;2023-06-10T14:10:44;37.50;54.90
19555;DHT22;9924;50.828;6.440;2023-06-10T14:13:29;37.40;55.80
19555;DHT22;9924;50.828;6.440;2023-06-10T14:16:14;37.50;54.60
19555;DHT22;9924;50.828;6.440;2023-06-10T14:18:58;38.00;54.50
19555;DHT22;9924;50.828;6.440;2023-06-10T14:21:42;38.20;52.70
19555;DHT22;9924;50.828;6.440;2023-06-10T14:24:26;37.60;53.20
19555;DHT22;9924;50.828;6.440;2023-06-10T14:27:11;37.60;52.40
19555;DHT22;9924;50.828;6.440;2023-06-10T14:29:55;37.40;53.30
19555;DHT22;9924;50.828;6.440;2023-06-10T14:32:40;37.40;52.60
19555;DHT22;9924;50.828;6.440;2023-06-10T14:35:24;37.10;51.40
19555;DHT22;9924;50.828;6.440;2023-06-10T14:38:09;36.90;53.90
19555;DHT22;9924;50.828;6.440;2023-06-10T14:40:53;37.20;51.00
19555;DHT22;9924;50.828;6.440;2023-06-10T14:43:38;37.30;51.70
19555;DHT22;9924;50.828;6.440;2023-06-10T14:46:22;37.10;52.80
19555;DHT22;9924;50.828;6.440;2023-06-10T14:49:06;36.40;52.70
19555;DHT22;9924;50.828;6.440;2023-06-10T14:51:51;35.50;53.00
19555;DHT22;9924;50.828;6.440;2023-06-10T14:54:35;34.50;52.40
19555;DHT22;9924;50.828;6.440;2023-06-10T14:57:19;33.70;54.00
19555;DHT22;9924;50.828;6.440;2023-06-10T15:00:04;33.60;53.90
19555;DHT22;9924;50.828;6.440;2023-06-10T15:02:51;34.00;54.40
19555;DHT22;9924;50.828;6.440;2023-06-10T15:05:35;34.40;53.30
19555;DHT22;9924;50.828;6.440;2023-06-10T15:08:21;35.40;54.30
19555;DHT22;9924;50.828;6.440;2023-06-10T15:11:05;35.90;52.00
19555;DHT22;9924;50.828;6.440;2023-06-10T15:13:50;36.20;53.90
19555;DHT22;9924;50.828;6.440;2023-06-10T15:16:34;36.40;52.50
19555;DHT22;9924;50.828;6.440;2023-06-10T15:19:19;36.40;50.10
19555;DHT22;9924;50.828;6.440;2023-06-10T15:22:03;36.20;51.00
19555;DHT22;9924;50.828;6.440;2023-06-10T15:24:48;36.30;52.70
19555;DHT22;9924;50.828;6.440;2023-06-10T15:27:32;36.30;52.70
19555;DHT22;9924;50.828;6.440;2023-06-10T15:30:17;36.10;54.30
19555;DHT22;9924;50.828;6.440;2023-06-10T15:33:01;36.30;52.40
19555;DHT22;9924;50.828;6.440;2023-06-10T15:35:45;35.60;53.30
19555;DHT22;9924;50.828;6.440;2023-06-10T15:38:30;35.90;52.10
19555;DHT22;9924;50.828;6.440;2023-06-10T15:41:14;36.20;49.50
19555;DHT22;9924;50.828;6.440;2023-06-10T15:43:59;35.90;50.00
19555;DHT22;9924;50.828;6.440;2023-06-10T15:46:44;36.50;51.00
19555;DHT22;9924;50.828;6.440;2023-06-10T15:49:29;36.80;48.80
19555;DHT22;9924;50.828;6.440;2023-06-10T15:52:13;36.90;50.20
19555;DHT22;9924;50.828;6.440;2023-06-10T15:54:57;36.80;49.20
19555;DHT22;9924;50.828;6.440;2023-06-10T15:57:42;36.60;50.80
19555;DHT22;9924;50.828;6.440;2023-06-10T16:00:26;36.20;51.40
19555;DHT22;9924;50.828;6.440;2023-06-10T16:03:11;36.30;50.60
19555;DHT22;9924;50.828;6.440;2023-06-10T16:05:55;36.10;51.20
19555;DHT22;9924;50.828;6.440;2023-06-10T16:08:40;36.20;52.80
19555;DHT22;9924;50.828;6.440;2023-06-10T16:11:24;35.60;50.00
19555;DHT22;9924;50.828;6.440;2023-06-10T16:14:09;35.20;54.40
19555;DHT22;9924;50.828;6.440;2023-06-10T16:16:54;35.80;51.90
19555;DHT22;9924;50.828;6.440;2023-06-10T16:19:41;35.50;52.10
19555;DHT22;9924;50.828;6.440;2023-06-10T16:22:26;35.20;51.60
19555;DHT22;9924;50.828;6.440;2023-06-10T16:25:10;35.30;52.40
19555;DHT22;9924;50.828;6.440;2023-06-10T16:27:54;35.50;53.20
19555;DHT22;9924;50.828;6.440;2023-06-10T16:30:39;35.50;52.90
19555;DHT22;9924;50.828;6.440;2023-06-10T16:33:23;35.30;51.50
19555;DHT22;9924;50.828;6.440;2023-06-10T16:36:08;34.60;53.40
19555;DHT22;9924;50.828;6.440;2023-06-10T16:38:52;33.80;54.20
19555;DHT22;9924;50.828;6.440;2023-06-10T16:41:38;32.90;55.30
19555;DHT22;9924;50.828;6.440;2023-06-10T16:44:23;32.70;57.50
19555;DHT22;9924;50.828;6.440;2023-06-10T16:47:07;33.20;56.40
19555;DHT22;9924;50.828;6.440;2023-06-10T16:49:51;33.40;56.00
19555;DHT22;9924;50.828;6.440;2023-06-10T16:52:36;33.70;55.10
19555;DHT22;9924;50.828;6.440;2023-06-10T16:55:20;34.00;55.10
19555;DHT22;9924;50.828;6.440;2023-06-10T16:58:05;34.40;56.00
19555;DHT22;9924;50.828;6.440;2023-06-10T17:00:49;34.50;54.70
19555;DHT22;9924;50.828;6.440;2023-06-10T17:03:34;34.50;53.70
19555;DHT22;9924;50.828;6.440;2023-06-10T17:06:19;34.40;54.20
19555;DHT22;9924;50.828;6.440;2023-06-10T17:09:03;34.30;53.60
19555;DHT22;9924;50.828;6.440;2023-06-10T17:11:48;34.20;53.90
19555;DHT22;9924;50.828;6.440;2023-06-10T17:14:32;34.40;53.90
19555;DHT22;9924;50.828;6.440;2023-06-10T17:17:16;34.50;52.80
19555;DHT22;9924;50.828;6.440;2023-06-10T17:20:01;34.70;52.80
19555;DHT22;9924;50.828;6.440;2023-06-10T17:22:46;35.00;54.00
19555;DHT22;9924;50.828;6.440;2023-06-10T17:25:30;35.00;53.10
19555;DHT22;9924;50.828;6.440;2023-06-10T17:28:15;35.00;51.60
19555;DHT22;9924;50.828;6.440;2023-06-10T17:31:00;34.80;51.20
19555;DHT22;9924;50.828;6.440;2023-06-10T17:33:45;34.90;51.00
19555;DHT22;9924;50.828;6.440;2023-06-10T17:36:29;34.90;52.20
19555;DHT22;9924;50.828;6.440;2023-06-10T17:39:14;34.60;52.80
19555;DHT22;9924;50.828;6.440;2023-06-10T17:41:58;34.30;53.80
19555;DHT22;9924;50.828;6.440;2023-06-10T17:44:42;33.90;54.20
19555;DHT22;9924;50.828;6.440;2023-06-10T17:47:26;33.60;54.80
19555;DHT22;9924;50.828;6.440;2023-06-10T17:50:11;33.40;54.80
19555;DHT22;9924;50.828;6.440;2023-06-10T17:52:55;33.40;55.50
19555;DHT22;9924;50.828;6.440;2023-06-10T17:55:40;33.40;55.60
19555;DHT22;9924;50.828;6.440;2023-06-10T17:58:24;32.90;56.70
19555;DHT22;9924;50.828;6.440;2023-06-10T18:01:08;32.30;56.90
19555;DHT22;9924;50.828;6.440;2023-06-10T18:03:53;31.70;57.50
19555;DHT22;9924;50.828;6.440;2023-06-10T18:06:37;31.10;58.30
19555;DHT22;9924;50.828;6.440;2023-06-10T18:09:22;30.70;59.70
19555;DHT22;9924;50.828;6.440;2023-06-10T18:12:10;30.20;60.40
19555;DHT22;9924;50.828;6.440;2023-06-10T18:14:54;30.00;61.80